createdAt,value
2018-05-16T00:01:53.604Z,6.63
2018-05-16T00:04:21.087Z,7.03
2018-05-16T00:06:49.323Z,6.60
2018-05-16T00:09:16.789Z,7.43
2018-05-16T00:11:44.271Z,7.13
2018-05-16T00:14:11.774Z,6.67
2018-05-16T00:16:39.239Z,7.10
2018-05-16T00:19:06.715Z,7.30
2018-05-16T00:21:34.186Z,6.73
2018-05-16T00:24:01.684Z,8.10
2018-05-16T00:26:29.164Z,8.53
2018-05-16T00:28:56.638Z,7.33
2018-05-16T00:31:24.143Z,7.10
2018-05-16T00:33:52.386Z,7.63
2018-05-16T00:36:19.856Z,7.53
2018-05-16T00:38:47.332Z,7.67
2018-05-16T00:41:16.590Z,7.23
2018-05-16T00:43:44.122Z,7.77
2018-05-16T00:46:11.590Z,7.47
2018-05-16T00:48:39.071Z,7.67
2018-05-16T00:51:18.464Z,7.47
2018-05-16T00:53:45.935Z,8.23
2018-05-16T00:56:13.410Z,7.77
2018-05-16T00:58:40.897Z,7.80
2018-05-16T01:01:08.362Z,9.57
2018-05-16T01:03:36.614Z,9.00
2018-05-16T01:06:04.079Z,9.93
2018-05-16T01:08:31.575Z,9.87
2018-05-16T01:10:59.056Z,11.33
2018-05-16T01:13:27.450Z,10.33
2018-05-16T01:15:54.918Z,9.00
2018-05-16T01:18:22.420Z,9.10
2018-05-16T01:20:50.682Z,9.03
2018-05-16T01:23:18.165Z,10.33
2018-05-16T01:25:45.629Z,9.47
2018-05-16T01:28:13.118Z,10.43
2018-05-16T01:30:40.603Z,10.23
2018-05-16T01:33:08.084Z,8.90
2018-05-16T01:35:36.314Z,8.77
2018-05-16T01:38:04.556Z,7.83
2018-05-16T01:40:32.033Z,8.23
2018-05-16T01:42:59.557Z,8.17
2018-05-16T01:45:27.041Z,8.57
2018-05-16T01:47:54.517Z,8.70
2018-05-16T01:50:22.007Z,8.30
2018-05-16T01:52:49.475Z,8.57
2018-05-16T01:55:17.736Z,8.27
2018-05-16T01:57:45.221Z,8.07
2018-05-16T02:00:13.463Z,8.17
2018-05-16T02:02:40.941Z,8.13
2018-05-16T02:05:09.198Z,7.73
2018-05-16T02:07:36.658Z,7.70
2018-05-16T02:10:04.163Z,7.20
2018-05-16T02:12:31.618Z,8.40
2018-05-16T02:14:59.106Z,8.47
2018-05-16T02:17:26.582Z,9.30
2018-05-16T02:19:54.082Z,9.67
2018-05-16T02:22:21.554Z,9.67
2018-05-16T02:24:49.040Z,9.73
2018-05-16T02:27:16.507Z,8.93
2018-05-16T02:29:44.013Z,10.10
2018-05-16T02:32:11.478Z,10.47
2018-05-16T02:34:38.968Z,10.37
2018-05-16T02:37:06.448Z,10.80
2018-05-16T02:39:33.945Z,9.47
2018-05-16T02:42:01.425Z,9.83
2018-05-16T02:44:28.911Z,9.23
2018-05-16T02:46:56.380Z,8.67
2018-05-16T02:49:23.884Z,9.03
2018-05-16T02:51:51.368Z,9.50
2018-05-16T02:54:18.938Z,8.80
2018-05-16T02:56:46.390Z,9.50
2018-05-16T02:59:13.888Z,9.90
2018-05-16T03:01:42.136Z,9.30
2018-05-16T03:04:09.612Z,9.37
2018-05-16T03:06:37.098Z,9.73
2018-05-16T03:09:05.488Z,9.50
2018-05-16T03:11:32.980Z,8.00
2018-05-16T03:14:00.464Z,8.40
2018-05-16T03:16:27.953Z,8.57
2018-05-16T03:18:55.467Z,9.60
2018-05-16T03:21:22.964Z,10.27
2018-05-16T03:23:50.434Z,11.37
2018-05-16T03:26:17.927Z,10.67
2018-05-16T03:28:45.411Z,12.83
2018-05-16T03:31:12.914Z,11.73
2018-05-16T03:33:40.389Z,14.83
2018-05-16T03:36:07.869Z,13.93
2018-05-16T03:38:35.356Z,14.73
2018-05-16T03:41:03.622Z,16.37
2018-05-16T03:43:31.882Z,16.80
2018-05-16T03:45:59.380Z,18.37
2018-05-16T03:48:26.861Z,22.80
2018-05-16T03:50:54.390Z,20.03
2018-05-16T03:53:21.872Z,23.67
2018-05-16T03:55:49.388Z,22.00
2018-05-16T03:58:29.415Z,26.90
2018-05-16T04:01:08.887Z,23.70
2018-05-16T04:03:49.105Z,27.10
2018-05-16T04:06:16.604Z,28.83
2018-05-16T04:08:44.860Z,30.70
2018-05-16T04:11:12.585Z,29.70
2018-05-16T04:13:40.115Z,35.37
2018-05-16T04:16:08.442Z,31.20
2018-05-16T04:18:35.941Z,37.17
2018-05-16T04:21:04.202Z,32.80
2018-05-16T04:23:31.701Z,29.60
2018-05-16T04:25:59.188Z,32.23
2018-05-16T04:28:26.706Z,35.73
2018-05-16T04:30:54.191Z,42.13
2018-05-16T04:33:22.472Z,33.67
2018-05-16T04:35:49.982Z,33.00
2018-05-16T04:38:18.258Z,37.53
2018-05-16T04:40:46.537Z,44.83
2018-05-16T04:43:14.791Z,41.30
2018-05-16T04:45:42.291Z,37.80
2018-05-16T04:48:09.779Z,35.33
2018-05-16T04:50:37.284Z,42.27
2018-05-16T04:53:05.565Z,39.87
2018-05-16T04:55:33.037Z,36.80
2018-05-16T04:58:00.543Z,38.00
2018-05-16T05:00:28.030Z,34.23
2018-05-16T05:02:56.297Z,39.03
2018-05-16T05:05:24.554Z,35.67
2018-05-16T05:07:52.049Z,40.23
2018-05-16T05:10:19.553Z,39.73
2018-05-16T05:12:47.149Z,43.40
2018-05-16T05:15:15.394Z,40.03
2018-05-16T05:17:42.891Z,41.77
2018-05-16T05:20:11.143Z,45.53
2018-05-16T05:22:38.662Z,38.00
2018-05-16T05:25:06.135Z,36.77
2018-05-16T05:27:33.636Z,46.53
2018-05-16T05:30:01.892Z,46.87
2018-05-16T05:32:29.413Z,46.27
2018-05-16T05:34:56.897Z,48.73
2018-05-16T05:37:24.486Z,41.33
2018-05-16T05:39:51.890Z,39.60
2018-05-16T05:42:19.384Z,34.50
2018-05-16T05:44:46.926Z,37.10
2018-05-16T05:47:15.196Z,34.73
2018-05-16T05:49:42.656Z,33.77
2018-05-16T05:52:10.184Z,32.70
2018-05-16T05:54:37.663Z,39.17
2018-05-16T05:57:05.143Z,34.57
2018-05-16T05:59:32.612Z,29.37
2018-05-16T06:02:00.110Z,31.33
2018-05-16T06:04:27.586Z,32.37
2018-05-16T06:06:55.128Z,33.93
2018-05-16T06:09:22.620Z,32.73
2018-05-16T06:11:50.131Z,32.70
2018-05-16T06:14:17.632Z,37.13
2018-05-16T06:16:45.152Z,30.97
2018-05-16T06:19:12.658Z,29.53
2018-05-16T06:21:40.126Z,30.50
2018-05-16T06:24:07.623Z,28.80
2018-05-16T06:26:35.117Z,25.37
2018-05-16T06:29:02.611Z,27.97
2018-05-16T06:31:30.087Z,28.53
2018-05-16T06:33:57.599Z,25.73
2018-05-16T06:36:25.075Z,27.20
2018-05-16T06:38:52.554Z,25.93
2018-05-16T06:41:20.806Z,23.23
2018-05-16T06:43:48.326Z,21.47
2018-05-16T06:46:15.812Z,20.50
2018-05-16T06:48:43.299Z,25.00
2018-05-16T06:51:11.621Z,28.97
2018-05-16T06:53:39.117Z,18.47
2018-05-16T06:56:06.589Z,18.37
2018-05-16T06:58:34.848Z,17.83
2018-05-16T07:01:03.117Z,16.27
2018-05-16T07:03:30.606Z,14.83
2018-05-16T07:05:58.851Z,13.77
2018-05-16T07:08:26.474Z,12.23
2018-05-16T07:10:55.231Z,12.80
2018-05-16T07:13:23.528Z,12.70
2018-05-16T07:15:51.730Z,13.07
2018-05-16T07:18:19.239Z,12.77
2018-05-16T07:20:47.492Z,12.87
2018-05-16T07:23:15.003Z,11.63
2018-05-16T07:25:42.481Z,10.37
2018-05-16T07:28:11.024Z,10.13
2018-05-16T07:30:38.502Z,8.77
2018-05-16T07:33:05.992Z,7.20
2018-05-16T07:35:33.518Z,6.17
2018-05-16T07:38:01.011Z,5.63
2018-05-16T07:40:28.480Z,5.90
2018-05-16T07:42:55.962Z,5.05
2018-05-16T07:45:24.230Z,4.05
2018-05-16T07:47:52.464Z,4.03
2018-05-16T07:50:19.939Z,4.10
2018-05-16T07:52:47.462Z,4.35
2018-05-16T07:55:14.962Z,3.75
2018-05-16T07:57:42.446Z,3.35
2018-05-16T08:00:10.728Z,3.45
2018-05-16T08:02:38.965Z,3.30
2018-05-16T08:05:06.469Z,3.80
2018-05-16T08:07:33.950Z,3.00
2018-05-16T08:10:01.428Z,3.22
2018-05-16T08:12:29.694Z,2.72
2018-05-16T08:14:57.185Z,3.10
2018-05-16T08:17:24.679Z,3.12
2018-05-16T08:19:52.157Z,3.17
2018-05-16T08:22:19.639Z,3.40
2018-05-16T08:24:47.129Z,4.57
2018-05-16T08:27:14.635Z,3.10
2018-05-16T08:29:42.155Z,3.20
2018-05-16T08:32:10.395Z,3.45
2018-05-16T08:34:37.897Z,2.85
2018-05-16T08:37:05.427Z,3.08
2018-05-16T08:39:32.919Z,2.70
2018-05-16T08:42:00.397Z,3.05
2018-05-16T08:44:27.969Z,3.22
2018-05-16T08:46:55.489Z,3.22
2018-05-16T08:49:22.999Z,2.70
2018-05-16T08:51:50.471Z,2.87
2018-05-16T08:54:17.961Z,2.70
2018-05-16T08:56:45.427Z,2.53
2018-05-16T08:59:12.931Z,2.97
2018-05-16T09:01:40.416Z,2.92
2018-05-16T09:04:08.715Z,5.22
2018-05-16T09:06:36.197Z,2.50
2018-05-16T09:09:03.668Z,2.95
2018-05-16T09:11:31.171Z,2.80
2018-05-16T09:13:58.655Z,2.30
2018-05-16T09:16:26.178Z,2.00
2018-05-16T09:18:53.646Z,1.62
2018-05-16T09:21:21.922Z,1.80
2018-05-16T09:23:50.168Z,1.85
2018-05-16T09:26:17.672Z,2.15
2018-05-16T09:28:45.125Z,2.15
2018-05-16T09:31:12.608Z,2.40
2018-05-16T09:33:40.090Z,2.20
2018-05-16T09:36:07.606Z,1.90
2018-05-16T09:38:35.096Z,2.20
2018-05-16T09:41:02.600Z,2.08
2018-05-16T09:43:30.846Z,2.22
2018-05-16T09:45:58.342Z,2.10
2018-05-16T09:48:26.610Z,2.10
2018-05-16T09:50:54.858Z,2.08
2018-05-16T09:53:22.352Z,1.95
2018-05-16T09:55:50.703Z,3.05
2018-05-16T09:58:18.186Z,2.20
2018-05-16T10:00:46.466Z,2.60
2018-05-16T10:03:14.741Z,4.82
2018-05-16T10:05:42.254Z,4.15
2018-05-16T10:08:09.728Z,3.08
2018-05-16T10:10:37.213Z,2.60
2018-05-16T10:13:05.465Z,2.33
2018-05-16T10:15:32.953Z,2.50
2018-05-16T10:18:00.428Z,2.03
2018-05-16T10:20:27.924Z,2.12
2018-05-16T10:22:55.395Z,2.10
2018-05-16T10:25:22.874Z,2.62
2018-05-16T10:27:51.108Z,2.40
2018-05-16T10:30:18.616Z,2.25
2018-05-16T10:32:46.852Z,2.47
2018-05-16T10:35:14.318Z,2.30
2018-05-16T10:37:41.834Z,2.92
2018-05-16T10:40:09.335Z,3.58
2018-05-16T10:42:36.852Z,2.65
2018-05-16T10:45:04.311Z,2.35
2018-05-16T10:47:31.814Z,2.80
2018-05-16T10:49:59.290Z,2.28
2018-05-16T10:52:27.540Z,2.35
2018-05-16T10:54:55.026Z,2.20
2018-05-16T10:57:23.348Z,2.28
2018-05-16T10:59:51.539Z,2.00
2018-05-16T11:02:19.033Z,2.30
2018-05-16T11:04:47.333Z,2.20
2018-05-16T11:07:14.805Z,2.50
2018-05-16T11:09:42.285Z,2.70
2018-05-16T11:12:09.789Z,2.28
2018-05-16T11:14:37.283Z,2.78
2018-05-16T11:17:04.805Z,2.87
2018-05-16T11:19:32.329Z,3.12
2018-05-16T11:21:59.819Z,2.45
2018-05-16T11:24:28.054Z,2.28
2018-05-16T11:26:55.532Z,2.50
2018-05-16T11:29:23.007Z,2.47
2018-05-16T11:31:51.269Z,2.50
2018-05-16T11:34:18.739Z,3.30
2018-05-16T11:36:47.013Z,2.80
2018-05-16T11:39:15.248Z,2.30
2018-05-16T11:41:42.741Z,2.45
2018-05-16T11:44:10.986Z,2.87
2018-05-16T11:46:38.490Z,2.72
2018-05-16T11:49:05.998Z,2.25
2018-05-16T11:51:33.478Z,2.05
2018-05-16T11:54:00.989Z,3.15
2018-05-16T11:56:28.468Z,2.80
2018-05-16T11:58:55.952Z,2.60
2018-05-16T12:01:23.438Z,2.90
2018-05-16T12:03:50.930Z,2.45
2018-05-16T12:06:18.410Z,2.83
2018-05-16T12:08:45.921Z,2.58
2018-05-16T12:11:13.437Z,3.25
2018-05-16T12:13:41.714Z,2.80
2018-05-16T12:16:09.215Z,2.90
2018-05-16T12:18:36.707Z,2.42
2018-05-16T12:21:05.013Z,3.12
2018-05-16T12:23:32.528Z,2.58
2018-05-16T12:26:00.016Z,2.85
2018-05-16T12:28:27.541Z,2.70
2018-05-16T12:30:55.028Z,2.37
2018-05-16T12:33:22.518Z,2.30
2018-05-16T12:35:50.751Z,2.83
2018-05-16T12:38:18.233Z,2.50
2018-05-16T12:40:45.715Z,3.00
2018-05-16T12:43:16.764Z,2.60
2018-05-16T12:45:44.226Z,2.80
2018-05-16T12:48:11.751Z,2.70
2018-05-16T12:50:39.284Z,2.60
2018-05-16T12:53:06.737Z,2.58
2018-05-16T12:55:34.206Z,2.90
2018-05-16T12:58:01.702Z,3.12
2018-05-16T13:00:29.938Z,4.07
2018-05-16T13:02:57.481Z,2.83
2018-05-16T13:05:25.020Z,2.90
2018-05-16T13:07:52.499Z,2.92
2018-05-16T13:10:19.993Z,3.08
2018-05-16T13:12:48.253Z,2.78
2018-05-16T13:15:15.729Z,2.60
2018-05-16T13:17:43.974Z,2.42
2018-05-16T13:20:11.485Z,2.50
2018-05-16T13:22:38.964Z,2.92
2018-05-16T13:25:06.453Z,2.70
2018-05-16T13:27:33.920Z,2.62
2018-05-16T13:30:01.411Z,2.53
2018-05-16T13:32:28.914Z,2.37
2018-05-16T13:34:56.481Z,2.25
2018-05-16T13:37:23.878Z,2.70
2018-05-16T13:39:52.130Z,2.40
2018-05-16T13:42:19.598Z,2.75
2018-05-16T13:44:47.094Z,2.40
2018-05-16T13:47:14.567Z,2.70
2018-05-16T13:49:42.084Z,2.22
2018-05-16T13:52:10.328Z,2.60
2018-05-16T13:54:37.831Z,2.87
2018-05-16T13:57:05.339Z,2.70
2018-05-16T13:59:32.851Z,2.80
2018-05-16T14:02:00.345Z,2.25
2018-05-16T14:04:27.828Z,2.72
2018-05-16T14:06:55.299Z,2.55
2018-05-16T14:09:23.563Z,2.30
2018-05-16T14:11:51.069Z,2.58
2018-05-16T14:14:18.566Z,2.60
2018-05-16T14:16:46.039Z,2.90
2018-05-16T14:19:13.581Z,2.80
2018-05-16T14:21:41.053Z,2.60
2018-05-16T14:24:08.566Z,2.60
2018-05-16T14:26:36.030Z,2.20
2018-05-16T14:29:03.535Z,2.58
2018-05-16T14:31:31.021Z,2.83
2018-05-16T14:33:58.607Z,2.25
2018-05-16T14:36:26.089Z,2.42
2018-05-16T14:38:53.577Z,2.60
2018-05-16T14:41:21.830Z,2.72
2018-05-16T14:43:49.348Z,2.78
2018-05-16T14:46:16.829Z,2.65
2018-05-16T14:48:44.302Z,3.83
2018-05-16T14:51:11.788Z,3.42
2018-05-16T14:53:39.262Z,3.05
2018-05-16T14:56:06.764Z,3.05
2018-05-16T14:58:34.264Z,3.30
2018-05-16T15:01:02.538Z,3.33
2018-05-16T15:03:30.799Z,3.60
2018-05-16T15:05:58.322Z,3.53
2018-05-16T15:08:25.805Z,3.37
2018-05-16T15:10:53.295Z,3.47
2018-05-16T15:13:20.773Z,2.83
2018-05-16T15:15:48.253Z,2.97
2018-05-16T15:18:15.803Z,2.95
2018-05-16T15:20:43.295Z,3.25
2018-05-16T15:23:10.773Z,3.28
2018-05-16T15:25:39.038Z,3.03
2018-05-16T15:28:06.524Z,2.80
2018-05-16T15:30:34.036Z,3.67
2018-05-16T15:33:01.711Z,2.92
2018-05-16T15:35:29.797Z,3.10
2018-05-16T15:37:58.071Z,3.30
2018-05-16T15:40:26.348Z,3.30
2018-05-16T15:42:54.609Z,3.65
2018-05-16T15:45:22.082Z,3.35
2018-05-16T15:47:50.320Z,3.28
2018-05-16T15:50:17.857Z,2.72
2018-05-16T15:52:45.353Z,2.65
2018-05-16T15:55:12.869Z,2.35
2018-05-16T15:57:40.379Z,2.85
2018-05-16T16:00:07.891Z,2.80
2018-05-16T16:02:35.375Z,3.28
2018-05-16T16:05:02.877Z,3.95
2018-05-16T16:07:31.154Z,3.95
2018-05-16T16:09:59.399Z,4.67
2018-05-16T16:12:26.895Z,5.50
2018-05-16T16:14:54.373Z,5.83
2018-05-16T16:17:21.861Z,5.90
2018-05-16T16:19:49.341Z,6.97
2018-05-16T16:22:16.849Z,7.97
2018-05-16T16:24:44.341Z,8.33
2018-05-16T16:27:11.901Z,8.33
2018-05-16T16:29:39.776Z,7.77
2018-05-16T16:32:07.262Z,9.23
2018-05-16T16:34:35.516Z,14.50
2018-05-16T16:37:03.035Z,9.83
2018-05-16T16:39:30.530Z,9.10
2018-05-16T16:41:58.032Z,9.73
2018-05-16T16:44:25.523Z,7.73
2018-05-16T16:46:53.019Z,8.53
2018-05-16T16:49:21.305Z,8.57
2018-05-16T16:51:49.569Z,11.87
2018-05-16T16:54:17.813Z,11.23
2018-05-16T16:56:45.328Z,9.83
2018-05-16T16:59:12.820Z,8.40
2018-05-16T17:01:40.323Z,8.40
2018-05-16T17:04:08.792Z,9.20
2018-05-16T17:06:37.069Z,7.70
2018-05-16T17:09:05.418Z,9.30
2018-05-16T17:11:32.908Z,7.57
2018-05-16T17:14:04.086Z,7.73
2018-05-16T17:16:32.364Z,5.93
2018-05-16T17:18:59.855Z,5.53
2018-05-16T17:21:27.357Z,6.37
2018-05-16T17:23:54.828Z,7.03
2018-05-16T17:26:22.311Z,11.80
2018-05-16T17:28:49.825Z,7.00
2018-05-16T17:31:18.080Z,7.40
2018-05-16T17:33:45.570Z,6.40
2018-05-16T17:36:13.823Z,6.10
2018-05-16T17:38:41.326Z,6.30
2018-05-16T17:41:08.820Z,6.17
2018-05-16T17:43:37.158Z,6.30
2018-05-16T17:46:04.754Z,6.33
2018-05-16T17:48:32.232Z,6.70
2018-05-16T17:51:00.766Z,7.20
2018-05-16T17:53:28.269Z,7.37
2018-05-16T17:55:55.757Z,7.40
2018-05-16T17:58:24.025Z,7.90
2018-05-16T18:00:52.295Z,7.07
2018-05-16T18:03:20.569Z,8.00
2018-05-16T18:05:48.823Z,8.07
2018-05-16T18:08:16.301Z,9.10
2018-05-16T18:10:44.613Z,7.80
2018-05-16T18:16:33.163Z,7.97
2018-05-16T18:19:01.445Z,8.90
2018-05-16T18:21:28.919Z,8.13
2018-05-16T18:23:56.411Z,8.00
2018-05-16T18:26:23.895Z,8.87
2018-05-16T18:28:51.415Z,9.13
2018-05-16T18:31:18.892Z,8.77
2018-05-16T18:33:46.384Z,7.97
2018-05-16T18:36:14.633Z,8.27
2018-05-16T18:38:42.166Z,8.27
2018-05-16T18:41:09.653Z,8.57
2018-05-16T18:43:37.145Z,7.90
2018-05-16T18:46:04.616Z,8.80
2018-05-16T18:48:32.132Z,8.47
2018-05-16T18:51:00.387Z,9.37
2018-05-16T18:53:27.876Z,8.90
2018-05-16T18:55:56.145Z,7.97
2018-05-16T18:58:23.629Z,8.37
2018-05-16T19:00:51.104Z,9.27
2018-05-16T19:03:18.616Z,10.43
2018-05-16T19:05:46.099Z,9.67
2018-05-16T19:08:13.608Z,10.63
2018-05-16T19:10:41.090Z,10.40
2018-05-16T19:13:08.578Z,10.00
2018-05-16T19:15:36.067Z,10.27
2018-05-16T19:18:03.592Z,11.23
2018-05-16T19:20:31.073Z,20.73
2018-05-16T19:22:58.692Z,12.17
2018-05-16T19:25:26.963Z,9.73
2018-05-16T19:27:55.232Z,11.43
2018-05-16T19:30:22.735Z,11.47
2018-05-16T19:32:50.243Z,11.03
2018-05-16T19:35:17.790Z,12.40
2018-05-16T19:37:45.314Z,11.57
2018-05-16T19:40:12.994Z,12.07
2018-05-16T19:42:40.590Z,12.90
2018-05-16T19:45:08.099Z,13.60
2018-05-16T19:47:35.595Z,13.13
2018-05-16T19:50:03.099Z,11.33
2018-05-16T19:52:30.599Z,11.60
2018-05-16T19:54:58.101Z,12.20
2018-05-16T19:57:26.349Z,11.33
2018-05-16T19:59:53.867Z,11.40
2018-05-16T20:02:21.360Z,11.10
2018-05-16T20:04:48.863Z,11.57
2018-05-16T20:07:16.359Z,11.40
2018-05-16T20:09:43.859Z,11.83
2018-05-16T20:12:12.181Z,11.90
2018-05-16T20:14:39.700Z,11.70
2018-05-16T20:17:07.227Z,11.57
2018-05-16T20:19:34.725Z,11.20
2018-05-16T20:22:02.238Z,12.13
2018-05-16T20:24:29.716Z,11.73
2018-05-16T20:26:57.211Z,11.47
2018-05-16T20:29:24.815Z,12.00
2018-05-16T20:31:52.214Z,13.33
2018-05-16T20:34:19.736Z,12.00
2018-05-16T20:36:47.228Z,11.30
2018-05-16T20:39:14.752Z,15.03
2018-05-16T20:41:42.257Z,14.40
2018-05-16T20:44:09.778Z,12.00
2018-05-16T20:46:37.262Z,12.03
2018-05-16T20:49:04.792Z,11.60
2018-05-16T20:51:32.281Z,11.63
2018-05-16T20:53:59.799Z,10.63
2018-05-16T20:56:27.415Z,11.30
2018-05-16T20:58:54.980Z,11.20
2018-05-16T21:01:22.429Z,11.20
2018-05-16T21:03:49.934Z,10.83
2018-05-16T21:06:17.528Z,11.03
2018-05-16T21:08:45.051Z,10.77
2018-05-16T21:11:12.574Z,10.87
2018-05-16T21:13:40.819Z,10.60
2018-05-16T21:16:09.065Z,11.17
2018-05-16T21:18:36.555Z,11.37
2018-05-16T21:21:04.846Z,12.40
2018-05-16T21:23:32.332Z,13.57
2018-05-16T21:25:59.827Z,15.67
2018-05-16T21:28:28.089Z,13.53
2018-05-16T21:30:55.667Z,14.10
2018-05-16T21:33:23.932Z,11.97
2018-05-16T21:35:51.443Z,13.27
2018-05-16T21:38:18.965Z,11.90
2018-05-16T21:40:47.233Z,12.77
2018-05-16T21:43:15.502Z,12.57
2018-05-16T21:45:43.007Z,12.30
2018-05-16T21:48:10.500Z,12.87
2018-05-16T21:50:38.005Z,13.07
2018-05-16T21:53:05.487Z,12.67
2018-05-16T21:55:33.005Z,13.00
2018-05-16T21:58:01.282Z,12.63
2018-05-16T22:00:29.555Z,12.63
2018-05-16T22:02:57.804Z,13.03
2018-05-16T22:05:25.310Z,12.80
2018-05-16T22:07:52.821Z,11.83
2018-05-16T22:10:20.437Z,12.77
2018-05-16T22:12:47.963Z,12.60
2018-05-16T22:15:15.455Z,12.70
2018-05-16T22:17:42.977Z,11.47
2018-05-16T22:20:10.484Z,12.13
2018-05-16T22:22:38.005Z,11.23
2018-05-16T22:25:06.243Z,11.60
2018-05-16T22:27:34.552Z,11.83
2018-05-16T22:30:02.330Z,12.30
2018-05-16T22:32:36.233Z,12.57
2018-05-16T22:35:10.302Z,11.77
2018-05-16T22:37:43.551Z,11.50
2018-05-16T22:40:16.703Z,11.03
2018-05-16T22:42:43.737Z,10.90
2018-05-16T22:45:29.595Z,10.70
2018-05-16T22:47:57.104Z,10.87
2018-05-16T22:50:24.591Z,10.63
2018-05-16T22:52:52.105Z,10.33
2018-05-16T22:55:19.618Z,10.43
2018-05-16T22:57:47.153Z,10.60
2018-05-16T23:00:29.236Z,10.90
2018-05-16T23:02:56.743Z,10.33
2018-05-16T23:05:24.225Z,10.77
2018-05-16T23:07:51.862Z,10.70
2018-05-16T23:10:19.351Z,12.03
2018-05-16T23:12:46.828Z,11.43
2018-05-16T23:15:14.336Z,11.77
2018-05-16T23:17:41.820Z,12.40
2018-05-16T23:20:09.327Z,12.77
2018-05-16T23:22:36.841Z,13.33
2018-05-16T23:25:04.342Z,14.00
2018-05-16T23:27:32.598Z,14.70
2018-05-16T23:30:00.102Z,15.03
2018-05-16T23:32:27.621Z,14.67
2018-05-16T23:34:55.887Z,16.80
2018-05-16T23:37:23.371Z,16.70
2018-05-16T23:39:51.643Z,15.77
2018-05-16T23:42:19.883Z,16.07
2018-05-16T23:44:47.439Z,16.07
2018-05-16T23:47:14.919Z,15.73
2018-05-16T23:49:42.392Z,15.13
2018-05-16T23:52:10.661Z,15.03
2018-05-16T23:54:38.914Z,15.40
2018-05-16T23:57:06.436Z,15.23
2018-05-16T23:59:33.951Z,14.70
